sensor_id;sensor_type;location;lat;lon;timestamp;P1;durP1;ratioP1;P2;durP2;ratioP2
6987;SDS011;3534;49.960;8.018;2023-05-01T00:00:25;2.87;;;2.03;;
6987;SDS011;3534;49.960;8.018;2023-05-01T00:02:52;2.33;;;2.10;;
6987;SDS011;3534;49.960;8.018;2023-05-01T00:05:18;4.13;;;2.00;;
6987;SDS011;3534;49.960;8.018;2023-05-01T00:07:46;2.30;;;1.93;;
6987;SDS011;3534;49.960;8.018;2023-05-01T00:10:13;3.87;;;1.90;;
6987;SDS011;3534;49.960;8.018;2023-05-01T00:12:40;3.30;;;1.70;;
6987;SDS011;3534;49.960;8.018;2023-05-01T00:15:07;1.93;;;1.67;;
6987;SDS011;3534;49.960;8.018;2023-05-01T00:17:35;3.60;;;2.40;;
6987;SDS011;3534;49.960;8.018;2023-05-01T00:20:01;3.03;;;1.53;;
6987;SDS011;3534;49.960;8.018;2023-05-01T00:22:29;4.70;;;2.00;;
6987;SDS011;3534;49.960;8.018;2023-05-01T00:24:57;3.10;;;2.43;;
6987;SDS011;3534;49.960;8.018;2023-05-01T00:27:23;2.27;;;1.83;;
6987;SDS011;3534;49.960;8.018;2023-05-01T00:29:50;2.70;;;1.93;;
6987;SDS011;3534;49.960;8.018;2023-05-01T00:32:16;3.80;;;2.70;;
6987;SDS011;3534;49.960;8.018;2023-05-01T00:34:43;3.33;;;2.47;;
6987;SDS011;3534;49.960;8.018;2023-05-01T00:37:12;6.00;;;2.30;;
6987;SDS011;3534;49.960;8.018;2023-05-01T00:39:38;3.83;;;2.43;;
6987;SDS011;3534;49.960;8.018;2023-05-01T00:42:06;4.50;;;2.53;;
6987;SDS011;3534;49.960;8.018;2023-05-01T00:44:33;4.43;;;2.60;;
6987;SDS011;3534;49.960;8.018;2023-05-01T00:47:00;2.30;;;2.20;;
6987;SDS011;3534;49.960;8.018;2023-05-01T00:49:28;3.73;;;2.10;;
6987;SDS011;3534;49.960;8.018;2023-05-01T00:51:55;2.43;;;2.20;;
6987;SDS011;3534;49.960;8.018;2023-05-01T00:54:22;5.90;;;2.67;;
6987;SDS011;3534;49.960;8.018;2023-05-01T00:56:50;5.53;;;2.50;;
6987;SDS011;3534;49.960;8.018;2023-05-01T00:59:19;2.50;;;2.20;;
6987;SDS011;3534;49.960;8.018;2023-05-01T01:01:46;5.77;;;3.23;;
6987;SDS011;3534;49.960;8.018;2023-05-01T01:04:13;3.70;;;2.87;;
6987;SDS011;3534;49.960;8.018;2023-05-01T01:06:41;5.10;;;2.70;;
6987;SDS011;3534;49.960;8.018;2023-05-01T01:09:16;6.10;;;3.53;;
6987;SDS011;3534;49.960;8.018;2023-05-01T01:11:50;14.53;;;5.83;;
6987;SDS011;3534;49.960;8.018;2023-05-01T01:14:26;14.93;;;6.70;;
6987;SDS011;3534;49.960;8.018;2023-05-01T01:16:59;18.83;;;7.37;;
6987;SDS011;3534;49.960;8.018;2023-05-01T01:19:37;12.20;;;7.00;;
6987;SDS011;3534;49.960;8.018;2023-05-01T01:22:30;10.27;;;4.80;;
6987;SDS011;3534;49.960;8.018;2023-05-01T01:28:14;17.30;;;7.63;;
6987;SDS011;3534;49.960;8.018;2023-05-01T01:30:58;13.57;;;6.23;;
6987;SDS011;3534;49.960;8.018;2023-05-01T01:33:50;11.40;;;4.97;;
6987;SDS011;3534;49.960;8.018;2023-05-01T01:36:27;5.60;;;3.43;;
6987;SDS011;3534;49.960;8.018;2023-05-01T01:39:09;5.73;;;3.17;;
6987;SDS011;3534;49.960;8.018;2023-05-01T01:41:41;3.47;;;2.93;;
6987;SDS011;3534;49.960;8.018;2023-05-01T01:44:15;3.93;;;2.50;;
6987;SDS011;3534;49.960;8.018;2023-05-01T01:46:48;4.50;;;2.03;;
6987;SDS011;3534;49.960;8.018;2023-05-01T01:49:20;4.20;;;2.63;;
6987;SDS011;3534;49.960;8.018;2023-05-01T01:51:50;5.90;;;3.63;;
6987;SDS011;3534;49.960;8.018;2023-05-01T01:54:21;8.00;;;3.50;;
6987;SDS011;3534;49.960;8.018;2023-05-01T01:56:52;12.03;;;5.10;;
6987;SDS011;3534;49.960;8.018;2023-05-01T01:59:20;18.13;;;4.97;;
6987;SDS011;3534;49.960;8.018;2023-05-01T02:01:49;11.80;;;4.10;;
6987;SDS011;3534;49.960;8.018;2023-05-01T02:04:19;6.80;;;3.20;;
6987;SDS011;3534;49.960;8.018;2023-05-01T02:06:47;4.00;;;2.73;;
6987;SDS011;3534;49.960;8.018;2023-05-01T02:09:15;4.07;;;2.03;;
6987;SDS011;3534;49.960;8.018;2023-05-01T02:11:45;10.20;;;2.63;;
6987;SDS011;3534;49.960;8.018;2023-05-01T02:14:13;2.90;;;2.50;;
6987;SDS011;3534;49.960;8.018;2023-05-01T02:16:40;4.87;;;2.20;;
6987;SDS011;3534;49.960;8.018;2023-05-01T02:19:08;2.80;;;2.20;;
6987;SDS011;3534;49.960;8.018;2023-05-01T02:21:37;2.43;;;2.00;;
6987;SDS011;3534;49.960;8.018;2023-05-01T02:24:04;2.53;;;1.93;;
6987;SDS011;3534;49.960;8.018;2023-05-01T02:26:33;4.13;;;2.07;;
6987;SDS011;3534;49.960;8.018;2023-05-01T02:29:06;3.00;;;2.30;;
6987;SDS011;3534;49.960;8.018;2023-05-01T02:31:33;3.10;;;2.27;;
6987;SDS011;3534;49.960;8.018;2023-05-01T02:34:00;3.27;;;2.20;;
6987;SDS011;3534;49.960;8.018;2023-05-01T02:36:26;3.27;;;2.27;;
6987;SDS011;3534;49.960;8.018;2023-05-01T02:38:54;6.20;;;2.27;;
6987;SDS011;3534;49.960;8.018;2023-05-01T02:41:21;3.33;;;2.47;;
6987;SDS011;3534;49.960;8.018;2023-05-01T02:43:53;2.40;;;2.20;;
6987;SDS011;3534;49.960;8.018;2023-05-01T02:46:25;3.37;;;2.53;;
6987;SDS011;3534;49.960;8.018;2023-05-01T02:48:53;2.30;;;2.10;;
6987;SDS011;3534;49.960;8.018;2023-05-01T02:51:21;2.37;;;2.13;;
6987;SDS011;3534;49.960;8.018;2023-05-01T02:53:49;3.17;;;2.30;;
6987;SDS011;3534;49.960;8.018;2023-05-01T02:56:17;3.27;;;2.70;;
6987;SDS011;3534;49.960;8.018;2023-05-01T02:58:44;5.10;;;2.30;;
6987;SDS011;3534;49.960;8.018;2023-05-01T03:01:11;2.43;;;2.03;;
6987;SDS011;3534;49.960;8.018;2023-05-01T03:03:37;2.23;;;2.03;;
6987;SDS011;3534;49.960;8.018;2023-05-01T03:06:04;5.33;;;2.77;;
6987;SDS011;3534;49.960;8.018;2023-05-01T03:08:31;4.77;;;2.57;;
6987;SDS011;3534;49.960;8.018;2023-05-01T03:10:58;5.20;;;2.40;;
6987;SDS011;3534;49.960;8.018;2023-05-01T03:13:26;4.07;;;2.23;;
6987;SDS011;3534;49.960;8.018;2023-05-01T03:15:52;3.60;;;2.10;;
6987;SDS011;3534;49.960;8.018;2023-05-01T03:18:19;2.60;;;2.20;;
6987;SDS011;3534;49.960;8.018;2023-05-01T03:20:52;2.30;;;2.10;;
6987;SDS011;3534;49.960;8.018;2023-05-01T03:23:20;2.80;;;1.83;;
6987;SDS011;3534;49.960;8.018;2023-05-01T03:25:47;5.50;;;2.10;;
6987;SDS011;3534;49.960;8.018;2023-05-01T03:28:14;4.77;;;1.80;;
6987;SDS011;3534;49.960;8.018;2023-05-01T03:30:42;2.10;;;1.90;;
6987;SDS011;3534;49.960;8.018;2023-05-01T03:33:10;4.87;;;2.23;;
6987;SDS011;3534;49.960;8.018;2023-05-01T03:35:36;2.40;;;2.20;;
6987;SDS011;3534;49.960;8.018;2023-05-01T03:38:03;5.40;;;2.87;;
6987;SDS011;3534;49.960;8.018;2023-05-01T03:40:30;2.77;;;2.17;;
6987;SDS011;3534;49.960;8.018;2023-05-01T03:42:56;2.30;;;2.10;;
6987;SDS011;3534;49.960;8.018;2023-05-01T03:45:23;2.20;;;2.00;;
6987;SDS011;3534;49.960;8.018;2023-05-01T03:47:51;6.00;;;2.33;;
6987;SDS011;3534;49.960;8.018;2023-05-01T03:50:18;4.00;;;2.10;;
6987;SDS011;3534;49.960;8.018;2023-05-01T03:52:44;2.63;;;2.23;;
6987;SDS011;3534;49.960;8.018;2023-05-01T03:55:11;3.13;;;2.27;;
6987;SDS011;3534;49.960;8.018;2023-05-01T03:57:38;3.93;;;2.33;;
6987;SDS011;3534;49.960;8.018;2023-05-01T04:00:05;3.60;;;2.30;;
6987;SDS011;3534;49.960;8.018;2023-05-01T04:02:33;4.10;;;2.10;;
6987;SDS011;3534;49.960;8.018;2023-05-01T04:05:01;2.90;;;2.53;;
6987;SDS011;3534;49.960;8.018;2023-05-01T04:07:28;2.90;;;2.00;;
6987;SDS011;3534;49.960;8.018;2023-05-01T04:09:55;4.20;;;2.30;;
6987;SDS011;3534;49.960;8.018;2023-05-01T04:12:21;2.73;;;2.50;;
6987;SDS011;3534;49.960;8.018;2023-05-01T04:14:48;3.10;;;2.70;;
6987;SDS011;3534;49.960;8.018;2023-05-01T04:17:14;3.10;;;2.60;;
6987;SDS011;3534;49.960;8.018;2023-05-01T04:19:41;9.90;;;2.60;;
6987;SDS011;3534;49.960;8.018;2023-05-01T04:22:09;4.53;;;2.77;;
6987;SDS011;3534;49.960;8.018;2023-05-01T04:24:36;4.00;;;2.90;;
6987;SDS011;3534;49.960;8.018;2023-05-01T04:27:02;4.10;;;2.70;;
6987;SDS011;3534;49.960;8.018;2023-05-01T04:29:29;8.90;;;3.00;;
6987;SDS011;3534;49.960;8.018;2023-05-01T04:31:56;5.60;;;2.67;;
6987;SDS011;3534;49.960;8.018;2023-05-01T04:34:23;2.63;;;2.40;;
6987;SDS011;3534;49.960;8.018;2023-05-01T04:36:53;2.90;;;2.53;;
6987;SDS011;3534;49.960;8.018;2023-05-01T04:39:22;4.37;;;2.70;;
6987;SDS011;3534;49.960;8.018;2023-05-01T04:41:49;6.97;;;3.17;;
6987;SDS011;3534;49.960;8.018;2023-05-01T04:44:16;3.53;;;2.67;;
6987;SDS011;3534;49.960;8.018;2023-05-01T04:46:43;2.77;;;2.57;;
6987;SDS011;3534;49.960;8.018;2023-05-01T04:49:09;8.60;;;2.97;;
6987;SDS011;3534;49.960;8.018;2023-05-01T04:51:37;4.73;;;3.07;;
6987;SDS011;3534;49.960;8.018;2023-05-01T04:54:03;4.40;;;2.97;;
6987;SDS011;3534;49.960;8.018;2023-05-01T04:56:31;8.77;;;2.37;;
6987;SDS011;3534;49.960;8.018;2023-05-01T04:58:58;4.93;;;2.90;;
6987;SDS011;3534;49.960;8.018;2023-05-01T05:01:25;3.20;;;2.90;;
6987;SDS011;3534;49.960;8.018;2023-05-01T05:03:51;3.33;;;3.03;;
6987;SDS011;3534;49.960;8.018;2023-05-01T05:06:18;4.60;;;2.87;;
6987;SDS011;3534;49.960;8.018;2023-05-01T05:08:44;3.50;;;2.83;;
6987;SDS011;3534;49.960;8.018;2023-05-01T05:11:11;4.60;;;2.60;;
6987;SDS011;3534;49.960;8.018;2023-05-01T05:13:39;2.77;;;2.50;;
6987;SDS011;3534;49.960;8.018;2023-05-01T05:16:06;4.70;;;3.47;;
6987;SDS011;3534;49.960;8.018;2023-05-01T05:18:32;8.77;;;5.20;;
6987;SDS011;3534;49.960;8.018;2023-05-01T05:21:01;4.17;;;3.67;;
6987;SDS011;3534;49.960;8.018;2023-05-01T05:23:29;5.57;;;3.23;;
6987;SDS011;3534;49.960;8.018;2023-05-01T05:25:55;3.13;;;2.60;;
6987;SDS011;3534;49.960;8.018;2023-05-01T05:28:23;7.00;;;2.80;;
6987;SDS011;3534;49.960;8.018;2023-05-01T05:30:52;3.00;;;2.57;;
6987;SDS011;3534;49.960;8.018;2023-05-01T05:33:19;3.40;;;2.40;;
6987;SDS011;3534;49.960;8.018;2023-05-01T05:35:46;4.37;;;2.93;;
6987;SDS011;3534;49.960;8.018;2023-05-01T05:38:13;4.07;;;2.60;;
6987;SDS011;3534;49.960;8.018;2023-05-01T05:40:39;3.33;;;2.63;;
6987;SDS011;3534;49.960;8.018;2023-05-01T05:43:06;5.07;;;2.43;;
6987;SDS011;3534;49.960;8.018;2023-05-01T05:45:34;2.97;;;2.67;;
6987;SDS011;3534;49.960;8.018;2023-05-01T05:48:02;4.47;;;2.90;;
6987;SDS011;3534;49.960;8.018;2023-05-01T05:50:29;2.80;;;2.60;;
6987;SDS011;3534;49.960;8.018;2023-05-01T05:52:56;3.73;;;2.83;;
6987;SDS011;3534;49.960;8.018;2023-05-01T05:55:23;3.77;;;3.27;;
6987;SDS011;3534;49.960;8.018;2023-05-01T05:57:49;3.70;;;2.87;;
6987;SDS011;3534;49.960;8.018;2023-05-01T06:00:16;6.63;;;2.87;;
6987;SDS011;3534;49.960;8.018;2023-05-01T06:02:43;3.47;;;2.60;;
6987;SDS011;3534;49.960;8.018;2023-05-01T06:05:11;4.13;;;2.83;;
6987;SDS011;3534;49.960;8.018;2023-05-01T06:07:38;6.30;;;3.30;;
6987;SDS011;3534;49.960;8.018;2023-05-01T06:10:05;4.23;;;2.80;;
6987;SDS011;3534;49.960;8.018;2023-05-01T06:12:32;4.27;;;2.60;;
6987;SDS011;3534;49.960;8.018;2023-05-01T06:14:59;5.30;;;3.10;;
6987;SDS011;3534;49.960;8.018;2023-05-01T06:17:26;5.30;;;2.73;;
6987;SDS011;3534;49.960;8.018;2023-05-01T06:19:53;4.47;;;2.77;;
6987;SDS011;3534;49.960;8.018;2023-05-01T06:22:21;5.10;;;2.77;;
6987;SDS011;3534;49.960;8.018;2023-05-01T06:24:48;3.70;;;2.40;;
6987;SDS011;3534;49.960;8.018;2023-05-01T06:27:14;4.67;;;2.93;;
6987;SDS011;3534;49.960;8.018;2023-05-01T06:29:41;4.00;;;2.60;;
6987;SDS011;3534;49.960;8.018;2023-05-01T06:32:08;3.53;;;2.80;;
6987;SDS011;3534;49.960;8.018;2023-05-01T06:34:34;3.13;;;2.40;;
6987;SDS011;3534;49.960;8.018;2023-05-01T06:37:01;6.20;;;3.20;;
6987;SDS011;3534;49.960;8.018;2023-05-01T06:39:30;2.90;;;2.57;;
6987;SDS011;3534;49.960;8.018;2023-05-01T06:41:57;6.70;;;3.30;;
6987;SDS011;3534;49.960;8.018;2023-05-01T06:44:23;7.93;;;3.13;;
6987;SDS011;3534;49.960;8.018;2023-05-01T06:46:50;9.27;;;3.27;;
6987;SDS011;3534;49.960;8.018;2023-05-01T06:49:17;6.00;;;2.87;;
6987;SDS011;3534;49.960;8.018;2023-05-01T06:51:43;5.67;;;3.10;;
6987;SDS011;3534;49.960;8.018;2023-05-01T06:54:10;5.63;;;3.33;;
6987;SDS011;3534;49.960;8.018;2023-05-01T06:56:38;12.73;;;3.23;;
6987;SDS011;3534;49.960;8.018;2023-05-01T06:59:05;7.10;;;2.83;;
6987;SDS011;3534;49.960;8.018;2023-05-01T07:01:31;5.23;;;3.40;;
6987;SDS011;3534;49.960;8.018;2023-05-01T07:03:58;7.23;;;3.47;;
6987;SDS011;3534;49.960;8.018;2023-05-01T07:06:24;5.33;;;3.10;;
6987;SDS011;3534;49.960;8.018;2023-05-01T07:08:51;3.33;;;3.00;;
6987;SDS011;3534;49.960;8.018;2023-05-01T07:11:18;5.47;;;3.40;;
6987;SDS011;3534;49.960;8.018;2023-05-01T07:13:46;4.23;;;3.47;;
6987;SDS011;3534;49.960;8.018;2023-05-01T07:16:13;4.33;;;3.83;;
6987;SDS011;3534;49.960;8.018;2023-05-01T07:18:39;4.07;;;3.07;;
6987;SDS011;3534;49.960;8.018;2023-05-01T07:21:06;14.30;;;3.80;;
6987;SDS011;3534;49.960;8.018;2023-05-01T07:23:35;5.07;;;3.80;;
6987;SDS011;3534;49.960;8.018;2023-05-01T07:26:02;10.03;;;3.57;;
6987;SDS011;3534;49.960;8.018;2023-05-01T07:28:29;5.20;;;3.30;;
6987;SDS011;3534;49.960;8.018;2023-05-01T07:30:57;4.17;;;2.83;;
6987;SDS011;3534;49.960;8.018;2023-05-01T07:33:25;6.70;;;3.23;;
6987;SDS011;3534;49.960;8.018;2023-05-01T07:35:53;5.83;;;3.90;;
6987;SDS011;3534;49.960;8.018;2023-05-01T07:38:20;5.80;;;3.70;;
6987;SDS011;3534;49.960;8.018;2023-05-01T07:40:47;7.83;;;2.93;;
6987;SDS011;3534;49.960;8.018;2023-05-01T07:43:13;5.07;;;3.20;;
6987;SDS011;3534;49.960;8.018;2023-05-01T07:45:40;4.83;;;3.00;;
6987;SDS011;3534;49.960;8.018;2023-05-01T07:48:08;5.00;;;3.30;;
6987;SDS011;3534;49.960;8.018;2023-05-01T07:50:35;7.20;;;3.93;;
6987;SDS011;3534;49.960;8.018;2023-05-01T07:53:03;5.40;;;3.70;;
6987;SDS011;3534;49.960;8.018;2023-05-01T07:55:30;7.60;;;3.50;;
6987;SDS011;3534;49.960;8.018;2023-05-01T07:57:57;3.73;;;2.90;;
6987;SDS011;3534;49.960;8.018;2023-05-01T08:00:24;4.30;;;3.67;;
6987;SDS011;3534;49.960;8.018;2023-05-01T08:02:50;5.90;;;3.20;;
6987;SDS011;3534;49.960;8.018;2023-05-01T08:05:18;6.47;;;4.13;;
6987;SDS011;3534;49.960;8.018;2023-05-01T08:07:45;4.63;;;4.10;;
6987;SDS011;3534;49.960;8.018;2023-05-01T08:10:12;6.77;;;3.93;;
6987;SDS011;3534;49.960;8.018;2023-05-01T08:12:39;7.80;;;3.80;;
6987;SDS011;3534;49.960;8.018;2023-05-01T08:15:06;7.40;;;3.97;;
6987;SDS011;3534;49.960;8.018;2023-05-01T08:17:34;7.70;;;4.47;;
6987;SDS011;3534;49.960;8.018;2023-05-01T08:20:01;5.80;;;3.23;;
6987;SDS011;3534;49.960;8.018;2023-05-01T08:22:29;5.93;;;3.27;;
6987;SDS011;3534;49.960;8.018;2023-05-01T08:24:56;6.07;;;3.77;;
6987;SDS011;3534;49.960;8.018;2023-05-01T08:27:23;4.40;;;3.40;;
6987;SDS011;3534;49.960;8.018;2023-05-01T08:29:49;8.27;;;3.17;;
6987;SDS011;3534;49.960;8.018;2023-05-01T08:32:17;4.03;;;3.63;;
6987;SDS011;3534;49.960;8.018;2023-05-01T08:34:44;6.40;;;3.87;;
6987;SDS011;3534;49.960;8.018;2023-05-01T08:37:10;4.10;;;3.70;;
6987;SDS011;3534;49.960;8.018;2023-05-01T08:39:38;4.73;;;3.57;;
6987;SDS011;3534;49.960;8.018;2023-05-01T08:42:05;3.87;;;3.50;;
6987;SDS011;3534;49.960;8.018;2023-05-01T08:44:33;7.20;;;4.30;;
6987;SDS011;3534;49.960;8.018;2023-05-01T08:47:06;7.57;;;4.50;;
6987;SDS011;3534;49.960;8.018;2023-05-01T08:49:37;5.37;;;3.40;;
6987;SDS011;3534;49.960;8.018;2023-05-01T08:52:07;4.97;;;3.77;;
6987;SDS011;3534;49.960;8.018;2023-05-01T08:54:35;5.37;;;3.43;;
6987;SDS011;3534;49.960;8.018;2023-05-01T08:57:05;4.40;;;3.67;;
6987;SDS011;3534;49.960;8.018;2023-05-01T08:59:35;4.70;;;3.60;;
6987;SDS011;3534;49.960;8.018;2023-05-01T09:02:04;6.17;;;3.67;;
6987;SDS011;3534;49.960;8.018;2023-05-01T09:04:32;4.37;;;3.30;;
6987;SDS011;3534;49.960;8.018;2023-05-01T09:07:00;6.13;;;3.30;;
6987;SDS011;3534;49.960;8.018;2023-05-01T09:09:28;4.67;;;3.37;;
6987;SDS011;3534;49.960;8.018;2023-05-01T09:11:55;5.90;;;3.93;;
6987;SDS011;3534;49.960;8.018;2023-05-01T09:14:27;8.00;;;4.13;;
6987;SDS011;3534;49.960;8.018;2023-05-01T09:16:56;5.97;;;4.10;;
6987;SDS011;3534;49.960;8.018;2023-05-01T09:19:22;8.00;;;3.93;;
6987;SDS011;3534;49.960;8.018;2023-05-01T09:21:50;9.17;;;3.70;;
6987;SDS011;3534;49.960;8.018;2023-05-01T09:24:18;7.30;;;4.07;;
6987;SDS011;3534;49.960;8.018;2023-05-01T09:26:44;6.00;;;3.40;;
6987;SDS011;3534;49.960;8.018;2023-05-01T09:29:11;7.13;;;3.70;;
6987;SDS011;3534;49.960;8.018;2023-05-01T09:32:01;4.23;;;3.77;;
6987;SDS011;3534;49.960;8.018;2023-05-01T09:34:38;4.60;;;3.27;;
6987;SDS011;3534;49.960;8.018;2023-05-01T09:37:05;4.80;;;3.57;;
6987;SDS011;3534;49.960;8.018;2023-05-01T09:39:32;4.43;;;4.03;;
6987;SDS011;3534;49.960;8.018;2023-05-01T09:41:59;3.93;;;3.53;;
6987;SDS011;3534;49.960;8.018;2023-05-01T09:44:27;4.93;;;4.07;;
6987;SDS011;3534;49.960;8.018;2023-05-01T09:46:54;3.57;;;3.13;;
6987;SDS011;3534;49.960;8.018;2023-05-01T09:49:29;4.77;;;3.60;;
6987;SDS011;3534;49.960;8.018;2023-05-01T09:52:09;6.10;;;4.30;;
6987;SDS011;3534;49.960;8.018;2023-05-01T09:54:36;4.80;;;3.80;;
6987;SDS011;3534;49.960;8.018;2023-05-01T09:57:03;8.50;;;4.30;;
6987;SDS011;3534;49.960;8.018;2023-05-01T09:59:30;7.13;;;4.10;;
6987;SDS011;3534;49.960;8.018;2023-05-01T10:01:58;4.50;;;4.07;;
6987;SDS011;3534;49.960;8.018;2023-05-01T10:04:30;4.90;;;4.07;;
6987;SDS011;3534;49.960;8.018;2023-05-01T10:06:58;5.73;;;4.37;;
6987;SDS011;3534;49.960;8.018;2023-05-01T10:09:35;10.13;;;5.47;;
6987;SDS011;3534;49.960;8.018;2023-05-01T10:12:02;6.00;;;4.53;;
6987;SDS011;3534;49.960;8.018;2023-05-01T10:14:29;5.67;;;4.60;;
6987;SDS011;3534;49.960;8.018;2023-05-01T10:17:04;7.57;;;4.67;;
6987;SDS011;3534;49.960;8.018;2023-05-01T10:19:43;4.17;;;3.47;;
6987;SDS011;3534;49.960;8.018;2023-05-01T10:22:10;6.50;;;4.53;;
6987;SDS011;3534;49.960;8.018;2023-05-01T10:24:37;7.63;;;4.80;;
6987;SDS011;3534;49.960;8.018;2023-05-01T10:27:05;7.37;;;4.70;;
6987;SDS011;3534;49.960;8.018;2023-05-01T10:29:33;4.00;;;3.60;;
6987;SDS011;3534;49.960;8.018;2023-05-01T10:32:01;11.10;;;4.40;;
6987;SDS011;3534;49.960;8.018;2023-05-01T10:34:29;9.17;;;5.10;;
6987;SDS011;3534;49.960;8.018;2023-05-01T10:37:01;7.80;;;4.23;;
6987;SDS011;3534;49.960;8.018;2023-05-01T10:39:34;5.50;;;4.37;;
6987;SDS011;3534;49.960;8.018;2023-05-01T10:42:02;3.47;;;3.17;;
6987;SDS011;3534;49.960;8.018;2023-05-01T10:44:30;5.50;;;4.40;;
6987;SDS011;3534;49.960;8.018;2023-05-01T10:46:58;7.03;;;4.97;;
6987;SDS011;3534;49.960;8.018;2023-05-01T10:49:28;8.93;;;4.83;;
6987;SDS011;3534;49.960;8.018;2023-05-01T10:52:29;6.07;;;5.10;;
6987;SDS011;3534;49.960;8.018;2023-05-01T10:57:57;6.07;;;4.30;;
6987;SDS011;3534;49.960;8.018;2023-05-01T11:00:24;6.93;;;4.30;;
6987;SDS011;3534;49.960;8.018;2023-05-01T11:06:09;6.23;;;5.60;;
6987;SDS011;3534;49.960;8.018;2023-05-01T11:08:37;5.20;;;4.70;;
6987;SDS011;3534;49.960;8.018;2023-05-01T11:14:08;7.50;;;4.50;;
6987;SDS011;3534;49.960;8.018;2023-05-01T11:16:42;5.67;;;4.97;;
6987;SDS011;3534;49.960;8.018;2023-05-01T11:19:43;5.87;;;4.80;;
6987;SDS011;3534;49.960;8.018;2023-05-01T11:22:15;7.30;;;5.00;;
6987;SDS011;3534;49.960;8.018;2023-05-01T11:24:42;5.13;;;4.20;;
6987;SDS011;3534;49.960;8.018;2023-05-01T11:27:12;6.20;;;4.53;;
6987;SDS011;3534;49.960;8.018;2023-05-01T11:29:39;4.17;;;3.63;;
6987;SDS011;3534;49.960;8.018;2023-05-01T11:32:14;5.80;;;4.40;;
6987;SDS011;3534;49.960;8.018;2023-05-01T11:34:44;5.13;;;3.87;;
6987;SDS011;3534;49.960;8.018;2023-05-01T11:37:12;6.73;;;4.17;;
6987;SDS011;3534;49.960;8.018;2023-05-01T11:39:45;5.17;;;4.70;;
6987;SDS011;3534;49.960;8.018;2023-05-01T11:42:16;4.63;;;4.23;;
6987;SDS011;3534;49.960;8.018;2023-05-01T11:47:31;5.47;;;4.20;;
6987;SDS011;3534;49.960;8.018;2023-05-01T11:50:00;4.90;;;4.37;;
6987;SDS011;3534;49.960;8.018;2023-05-01T11:52:27;4.67;;;4.27;;
6987;SDS011;3534;49.960;8.018;2023-05-01T11:54:54;6.37;;;4.50;;
6987;SDS011;3534;49.960;8.018;2023-05-01T11:57:20;6.00;;;4.30;;
6987;SDS011;3534;49.960;8.018;2023-05-01T11:59:47;8.93;;;4.10;;
6987;SDS011;3534;49.960;8.018;2023-05-01T12:02:17;5.60;;;4.90;;
6987;SDS011;3534;49.960;8.018;2023-05-01T12:04:44;10.20;;;4.60;;
6987;SDS011;3534;49.960;8.018;2023-05-01T12:07:19;6.40;;;4.47;;
6987;SDS011;3534;49.960;8.018;2023-05-01T12:09:47;4.93;;;4.43;;
6987;SDS011;3534;49.960;8.018;2023-05-01T12:12:14;5.67;;;4.50;;
6987;SDS011;3534;49.960;8.018;2023-05-01T12:14:42;7.90;;;3.77;;
6987;SDS011;3534;49.960;8.018;2023-05-01T12:17:09;4.07;;;3.67;;
6987;SDS011;3534;49.960;8.018;2023-05-01T12:19:44;9.73;;;3.90;;
6987;SDS011;3534;49.960;8.018;2023-05-01T12:22:13;8.63;;;4.07;;
6987;SDS011;3534;49.960;8.018;2023-05-01T12:24:48;6.17;;;4.20;;
6987;SDS011;3534;49.960;8.018;2023-05-01T12:27:16;8.90;;;4.97;;
6987;SDS011;3534;49.960;8.018;2023-05-01T12:29:44;5.67;;;4.20;;
6987;SDS011;3534;49.960;8.018;2023-05-01T12:32:12;5.40;;;4.50;;
6987;SDS011;3534;49.960;8.018;2023-05-01T12:34:39;3.90;;;3.50;;
6987;SDS011;3534;49.960;8.018;2023-05-01T12:37:06;5.30;;;3.53;;
6987;SDS011;3534;49.960;8.018;2023-05-01T12:39:37;4.77;;;4.30;;
6987;SDS011;3534;49.960;8.018;2023-05-01T12:42:11;5.50;;;3.93;;
6987;SDS011;3534;49.960;8.018;2023-05-01T12:44:39;5.53;;;4.40;;
6987;SDS011;3534;49.960;8.018;2023-05-01T12:47:06;5.70;;;3.63;;
6987;SDS011;3534;49.960;8.018;2023-05-01T12:49:34;5.70;;;4.00;;
6987;SDS011;3534;49.960;8.018;2023-05-01T12:52:02;3.93;;;3.50;;
6987;SDS011;3534;49.960;8.018;2023-05-01T12:54:32;4.17;;;3.23;;
6987;SDS011;3534;49.960;8.018;2023-05-01T12:57:04;3.90;;;3.50;;
6987;SDS011;3534;49.960;8.018;2023-05-01T12:59:34;4.20;;;3.17;;
6987;SDS011;3534;49.960;8.018;2023-05-01T13:02:02;5.73;;;4.87;;
6987;SDS011;3534;49.960;8.018;2023-05-01T13:04:29;5.40;;;3.50;;
6987;SDS011;3534;49.960;8.018;2023-05-01T13:06:56;4.83;;;4.30;;
6987;SDS011;3534;49.960;8.018;2023-05-01T13:09:24;6.70;;;4.00;;
6987;SDS011;3534;49.960;8.018;2023-05-01T13:11:55;7.70;;;3.37;;
6987;SDS011;3534;49.960;8.018;2023-05-01T13:14:23;3.40;;;3.10;;
6987;SDS011;3534;49.960;8.018;2023-05-01T13:16:52;5.37;;;3.00;;
6987;SDS011;3534;49.960;8.018;2023-05-01T13:19:23;4.20;;;3.17;;
6987;SDS011;3534;49.960;8.018;2023-05-01T13:21:51;4.70;;;3.50;;
6987;SDS011;3534;49.960;8.018;2023-05-01T13:24:18;4.23;;;3.13;;
6987;SDS011;3534;49.960;8.018;2023-05-01T13:26:46;5.00;;;3.47;;
6987;SDS011;3534;49.960;8.018;2023-05-01T13:29:13;4.30;;;3.00;;
6987;SDS011;3534;49.960;8.018;2023-05-01T13:31:41;9.43;;;3.67;;
6987;SDS011;3534;49.960;8.018;2023-05-01T13:34:10;4.57;;;3.60;;
6987;SDS011;3534;49.960;8.018;2023-05-01T13:36:39;3.53;;;3.23;;
6987;SDS011;3534;49.960;8.018;2023-05-01T13:39:05;3.53;;;2.83;;
6987;SDS011;3534;49.960;8.018;2023-05-01T13:41:32;4.37;;;2.80;;
6987;SDS011;3534;49.960;8.018;2023-05-01T13:43:59;3.50;;;2.93;;
6987;SDS011;3534;49.960;8.018;2023-05-01T13:46:27;2.83;;;2.63;;
6987;SDS011;3534;49.960;8.018;2023-05-01T13:48:54;5.13;;;2.83;;
6987;SDS011;3534;49.960;8.018;2023-05-01T13:51:25;3.20;;;2.63;;
6987;SDS011;3534;49.960;8.018;2023-05-01T13:53:52;3.70;;;3.30;;
6987;SDS011;3534;49.960;8.018;2023-05-01T13:56:20;3.27;;;3.00;;
6987;SDS011;3534;49.960;8.018;2023-05-01T13:58:47;5.43;;;2.87;;
6987;SDS011;3534;49.960;8.018;2023-05-01T14:01:14;4.70;;;3.03;;
6987;SDS011;3534;49.960;8.018;2023-05-01T14:03:42;4.10;;;3.40;;
6987;SDS011;3534;49.960;8.018;2023-05-01T14:06:09;3.80;;;3.20;;
6987;SDS011;3534;49.960;8.018;2023-05-01T14:08:40;3.80;;;3.40;;
6987;SDS011;3534;49.960;8.018;2023-05-01T14:11:08;3.60;;;2.83;;
6987;SDS011;3534;49.960;8.018;2023-05-01T14:13:37;5.40;;;2.60;;
6987;SDS011;3534;49.960;8.018;2023-05-01T14:16:06;5.43;;;3.17;;
6987;SDS011;3534;49.960;8.018;2023-05-01T14:18:34;3.73;;;3.07;;
6987;SDS011;3534;49.960;8.018;2023-05-01T14:21:06;4.13;;;2.70;;
6987;SDS011;3534;49.960;8.018;2023-05-01T14:23:34;3.30;;;3.00;;
6987;SDS011;3534;49.960;8.018;2023-05-01T14:26:02;4.60;;;3.27;;
6987;SDS011;3534;49.960;8.018;2023-05-01T14:28:29;4.07;;;3.20;;
6987;SDS011;3534;49.960;8.018;2023-05-01T14:30:56;4.33;;;2.43;;
6987;SDS011;3534;49.960;8.018;2023-05-01T14:33:23;2.80;;;2.30;;
6987;SDS011;3534;49.960;8.018;2023-05-01T14:35:50;11.23;;;3.53;;
6987;SDS011;3534;49.960;8.018;2023-05-01T14:38:19;5.50;;;2.33;;
6987;SDS011;3534;49.960;8.018;2023-05-01T14:40:47;2.90;;;2.60;;
6987;SDS011;3534;49.960;8.018;2023-05-01T14:43:16;2.93;;;2.63;;
6987;SDS011;3534;49.960;8.018;2023-05-01T14:45:44;3.10;;;2.10;;
6987;SDS011;3534;49.960;8.018;2023-05-01T14:48:15;3.73;;;2.27;;
6987;SDS011;3534;49.960;8.018;2023-05-01T14:50:47;2.67;;;2.30;;
6987;SDS011;3534;49.960;8.018;2023-05-01T14:53:14;2.47;;;2.10;;
6987;SDS011;3534;49.960;8.018;2023-05-01T14:55:41;3.30;;;2.23;;
6987;SDS011;3534;49.960;8.018;2023-05-01T14:58:07;2.70;;;2.50;;
6987;SDS011;3534;49.960;8.018;2023-05-01T15:00:35;3.77;;;2.20;;
6987;SDS011;3534;49.960;8.018;2023-05-01T15:03:02;8.10;;;2.43;;
6987;SDS011;3534;49.960;8.018;2023-05-01T15:05:29;2.73;;;2.03;;
6987;SDS011;3534;49.960;8.018;2023-05-01T15:07:56;2.60;;;2.40;;
6987;SDS011;3534;49.960;8.018;2023-05-01T15:10:24;2.63;;;2.40;;
6987;SDS011;3534;49.960;8.018;2023-05-01T15:12:52;3.17;;;1.93;;
6987;SDS011;3534;49.960;8.018;2023-05-01T15:15:19;2.50;;;1.80;;
6987;SDS011;3534;49.960;8.018;2023-05-01T15:17:47;3.60;;;2.70;;
6987;SDS011;3534;49.960;8.018;2023-05-01T15:20:14;2.87;;;2.30;;
6987;SDS011;3534;49.960;8.018;2023-05-01T15:22:40;5.77;;;3.77;;
6987;SDS011;3534;49.960;8.018;2023-05-01T15:25:08;2.50;;;2.30;;
6987;SDS011;3534;49.960;8.018;2023-05-01T15:27:35;2.47;;;2.27;;
6987;SDS011;3534;49.960;8.018;2023-05-01T15:30:02;3.27;;;2.07;;
6987;SDS011;3534;49.960;8.018;2023-05-01T15:32:29;2.03;;;1.93;;
6987;SDS011;3534;49.960;8.018;2023-05-01T15:34:57;3.83;;;2.67;;
6987;SDS011;3534;49.960;8.018;2023-05-01T15:37:24;2.20;;;2.00;;